createdAt,value
2022-11-09T00:00:42.701Z,12.53
2022-11-09T00:03:09.829Z,12.27
2022-11-09T00:05:37.415Z,11.60
2022-11-09T00:08:08.575Z,15.90
2022-11-09T00:10:35.758Z,13.03
2022-11-09T00:13:03.033Z,12.03
2022-11-09T00:15:30.223Z,14.47
2022-11-09T00:18:00.780Z,15.33
2022-11-09T00:20:28.169Z,17.87
2022-11-09T00:22:55.308Z,14.80
2022-11-09T00:25:22.450Z,15.90
2022-11-09T00:27:49.552Z,14.10
2022-11-09T00:30:16.661Z,16.20
2022-11-09T00:32:44.625Z,14.17
2022-11-09T00:35:11.939Z,14.43
2022-11-09T00:37:39.104Z,15.03
2022-11-09T00:40:06.547Z,13.57
2022-11-09T00:42:33.690Z,15.63
2022-11-09T00:45:00.839Z,14.07
2022-11-09T00:47:28.071Z,13.23
2022-11-09T00:49:55.608Z,16.80
2022-11-09T00:52:22.741Z,14.00
2022-11-09T00:54:49.891Z,11.80
2022-11-09T00:57:17.134Z,13.27
2022-11-09T00:59:44.442Z,14.47
2022-11-09T01:02:11.539Z,18.50
2022-11-09T01:04:38.738Z,14.47
2022-11-09T01:07:08.037Z,16.33
2022-11-09T01:09:35.275Z,13.33
2022-11-09T01:12:02.558Z,11.63
2022-11-09T01:14:29.706Z,12.33
2022-11-09T01:16:56.786Z,13.90
2022-11-09T01:19:23.930Z,12.67
2022-11-09T01:21:51.031Z,14.03
2022-11-09T01:24:18.186Z,12.40
2022-11-09T01:26:45.355Z,12.70
2022-11-09T01:29:12.469Z,13.87
2022-11-09T01:31:39.623Z,13.63
2022-11-09T01:34:06.731Z,12.57
2022-11-09T01:36:33.879Z,13.23
2022-11-09T01:39:01.303Z,12.50
2022-11-09T01:41:29.261Z,11.73
2022-11-09T01:44:07.349Z,10.73
2022-11-09T01:46:36.643Z,11.77
2022-11-09T01:49:08.164Z,10.83
2022-11-09T01:51:43.118Z,12.30
2022-11-09T01:54:15.478Z,14.70
2022-11-09T01:56:43.440Z,11.83
2022-11-09T01:59:12.563Z,11.37
2022-11-09T02:01:39.800Z,12.83
2022-11-09T02:04:09.950Z,12.10
2022-11-09T02:06:37.227Z,12.30
2022-11-09T02:09:12.804Z,11.80
2022-11-09T02:11:39.916Z,12.27
2022-11-09T02:14:08.107Z,12.97
2022-11-09T02:16:35.486Z,13.13
2022-11-09T02:19:02.656Z,11.90
2022-11-09T02:21:31.518Z,14.43
2022-11-09T02:23:59.084Z,11.97
2022-11-09T02:26:26.257Z,13.23
2022-11-09T02:28:55.338Z,12.90
2022-11-09T02:31:23.394Z,10.13
2022-11-09T02:34:00.548Z,14.90
2022-11-09T02:36:27.648Z,13.27
2022-11-09T02:38:56.059Z,12.47
2022-11-09T02:41:23.849Z,12.23
2022-11-09T02:43:53.172Z,11.17
2022-11-09T02:46:31.030Z,11.10
2022-11-09T02:48:58.126Z,10.17
2022-11-09T02:51:25.248Z,12.47
2022-11-09T02:53:52.371Z,8.77
2022-11-09T02:56:19.528Z,10.70
2022-11-09T02:58:46.642Z,10.10
2022-11-09T03:01:13.812Z,13.40
2022-11-09T03:03:41.050Z,9.57
2022-11-09T03:06:08.196Z,11.33
2022-11-09T03:08:35.272Z,10.70
2022-11-09T03:11:02.435Z,8.90
2022-11-09T03:13:29.548Z,13.83
2022-11-09T03:15:56.791Z,10.67
2022-11-09T03:18:23.885Z,12.47
2022-11-09T03:20:51.057Z,9.93
2022-11-09T03:23:18.476Z,13.17
2022-11-09T03:25:45.848Z,10.17
2022-11-09T03:28:13.076Z,12.93
2022-11-09T03:30:40.178Z,10.57
2022-11-09T03:33:12.606Z,10.93
2022-11-09T03:35:39.713Z,10.77
2022-11-09T03:38:07.197Z,9.17
2022-11-09T03:40:34.404Z,12.73
2022-11-09T03:43:01.557Z,9.13
2022-11-09T03:45:28.680Z,12.43
2022-11-09T03:48:00.106Z,11.40
2022-11-09T03:50:31.414Z,13.13
2022-11-09T03:52:58.953Z,10.40
2022-11-09T03:55:26.471Z,9.50
2022-11-09T03:57:53.793Z,11.10
2022-11-09T04:00:22.382Z,14.73
2022-11-09T04:02:49.475Z,12.43
2022-11-09T04:05:17.058Z,13.57
2022-11-09T04:07:48.233Z,11.67
2022-11-09T04:10:15.587Z,12.37
2022-11-09T04:12:42.802Z,12.00
2022-11-09T04:15:10.174Z,12.37
2022-11-09T04:17:37.466Z,12.57
2022-11-09T04:20:05.040Z,11.53
2022-11-09T04:22:32.333Z,13.67
2022-11-09T04:24:59.471Z,10.60
2022-11-09T04:27:26.712Z,14.60
2022-11-09T04:29:53.859Z,15.60
2022-11-09T04:32:20.952Z,15.63
2022-11-09T04:34:48.087Z,11.27
2022-11-09T04:37:15.209Z,15.17
2022-11-09T04:39:42.303Z,12.90
2022-11-09T04:42:09.429Z,11.33
2022-11-09T04:44:36.576Z,13.70
2022-11-09T04:47:03.762Z,11.83
2022-11-09T04:49:30.888Z,12.80
2022-11-09T04:51:57.995Z,13.63
2022-11-09T04:54:25.155Z,12.07
2022-11-09T04:56:52.251Z,14.17
2022-11-09T04:59:19.373Z,13.80
2022-11-09T05:01:46.473Z,13.97
2022-11-09T05:04:13.692Z,13.53
2022-11-09T05:06:40.865Z,11.90
2022-11-09T05:09:08.574Z,13.07
2022-11-09T05:11:36.416Z,12.83
2022-11-09T05:14:04.014Z,12.20
2022-11-09T05:16:31.447Z,13.23
2022-11-09T05:18:58.672Z,14.10
2022-11-09T05:21:25.956Z,17.10
2022-11-09T05:23:58.969Z,13.13
2022-11-09T05:26:32.155Z,13.77
2022-11-09T05:28:59.985Z,16.37
2022-11-09T05:31:27.682Z,13.90
2022-11-09T05:33:55.156Z,13.00
2022-11-09T05:36:22.699Z,14.77
2022-11-09T05:38:50.099Z,14.37
2022-11-09T05:41:17.533Z,16.67
2022-11-09T05:43:45.479Z,16.37
2022-11-09T05:46:13.568Z,13.50
2022-11-09T05:48:41.252Z,14.53
2022-11-09T05:51:09.380Z,11.60
2022-11-09T05:53:36.533Z,12.03
2022-11-09T05:56:04.981Z,16.40
2022-11-09T05:58:36.200Z,14.10
2022-11-09T06:01:05.206Z,12.00
2022-11-09T06:03:32.352Z,13.73
2022-11-09T06:06:08.052Z,12.90
2022-11-09T06:08:35.760Z,15.63
2022-11-09T06:11:04.259Z,11.80
2022-11-09T06:13:31.485Z,15.33
2022-11-09T06:15:59.560Z,13.33
2022-11-09T06:18:27.369Z,14.27
2022-11-09T06:20:58.697Z,18.57
2022-11-09T06:23:26.237Z,15.57
2022-11-09T06:25:59.914Z,11.90
2022-11-09T06:28:27.250Z,13.57
2022-11-09T06:30:57.628Z,16.07
2022-11-09T06:33:24.718Z,18.80
2022-11-09T06:35:56.082Z,16.30
2022-11-09T06:38:23.946Z,14.57
2022-11-09T06:40:54.796Z,13.30
2022-11-09T06:43:22.435Z,15.43
2022-11-09T06:45:49.792Z,14.60
2022-11-09T06:48:16.901Z,16.10
2022-11-09T06:50:44.063Z,18.67
2022-11-09T06:53:12.160Z,12.80
2022-11-09T06:55:39.359Z,17.57
2022-11-09T06:58:07.373Z,15.03
2022-11-09T07:00:34.472Z,13.40
2022-11-09T07:03:01.625Z,18.60
2022-11-09T07:05:28.730Z,14.50
2022-11-09T07:07:56.036Z,15.13
2022-11-09T07:10:23.221Z,14.23
2022-11-09T07:12:50.401Z,18.10
2022-11-09T07:15:18.560Z,14.33
2022-11-09T07:17:45.714Z,16.77
2022-11-09T07:20:14.794Z,12.97
2022-11-09T07:22:42.111Z,15.83
2022-11-09T07:25:10.270Z,15.53
2022-11-09T07:27:37.502Z,16.53
2022-11-09T07:30:05.210Z,16.67
2022-11-09T07:35:25.843Z,15.87
2022-11-09T07:37:53.159Z,18.23
2022-11-09T07:40:20.540Z,16.43
2022-11-09T07:42:47.663Z,17.63
2022-11-09T07:45:14.763Z,15.93
2022-11-09T07:47:41.869Z,14.57
2022-11-09T07:50:09.235Z,18.60
2022-11-09T07:52:36.385Z,11.83
2022-11-09T07:55:03.565Z,17.13
2022-11-09T07:57:30.707Z,13.40
2022-11-09T07:59:57.896Z,17.23
2022-11-09T08:02:25.173Z,17.27
2022-11-09T08:04:52.347Z,17.77
2022-11-09T08:07:19.465Z,15.97
2022-11-09T08:09:46.630Z,15.13
2022-11-09T08:12:13.738Z,15.73
2022-11-09T08:14:40.861Z,20.40
2022-11-09T08:17:07.972Z,19.47
2022-11-09T08:19:35.076Z,13.20
2022-11-09T08:22:02.202Z,14.43
2022-11-09T08:24:29.304Z,16.33
2022-11-09T08:26:56.406Z,14.50
2022-11-09T08:29:23.585Z,13.53
2022-11-09T08:31:51.287Z,17.00
2022-11-09T08:34:18.467Z,15.00
2022-11-09T08:36:45.611Z,15.30
2022-11-09T08:39:12.854Z,17.83
2022-11-09T08:41:39.995Z,16.40
2022-11-09T08:44:07.214Z,13.37
2022-11-09T08:46:39.897Z,15.07
2022-11-09T08:49:08.403Z,15.60
2022-11-09T08:51:35.526Z,14.77
2022-11-09T08:54:02.776Z,12.27
2022-11-09T08:56:30.102Z,14.97
2022-11-09T08:58:57.198Z,14.03
2022-11-09T09:01:25.457Z,13.37
2022-11-09T09:03:52.630Z,12.83
2022-11-09T09:06:19.730Z,12.93
2022-11-09T09:08:46.921Z,15.83
2022-11-09T09:11:14.071Z,13.47
2022-11-09T09:13:43.506Z,13.97
2022-11-09T09:16:15.491Z,12.97
2022-11-09T09:18:42.620Z,15.47
2022-11-09T09:21:10.671Z,16.17
2022-11-09T09:23:37.844Z,17.57
2022-11-09T09:26:05.024Z,14.53
2022-11-09T09:28:32.207Z,13.97
2022-11-09T09:31:00.009Z,15.37
2022-11-09T09:33:27.386Z,11.70
2022-11-09T09:35:58.207Z,14.90
2022-11-09T09:38:26.077Z,16.17
2022-11-09T09:41:00.490Z,14.13
2022-11-09T09:43:43.356Z,12.30
2022-11-09T09:46:31.418Z,16.10
2022-11-09T09:49:01.816Z,15.83
2022-11-09T09:51:34.863Z,10.97
2022-11-09T09:54:07.637Z,12.77
2022-11-09T09:56:35.656Z,11.13
2022-11-09T09:59:24.522Z,17.63
2022-11-09T10:01:51.789Z,18.37
2022-11-09T10:04:20.869Z,12.63
2022-11-09T10:06:50.801Z,14.67
2022-11-09T10:09:28.987Z,13.30
2022-11-09T10:12:01.317Z,15.97
2022-11-09T10:14:34.767Z,19.37
2022-11-09T10:17:08.218Z,13.40
2022-11-09T10:19:43.591Z,13.83
2022-11-09T10:22:37.167Z,14.53
2022-11-09T10:28:06.369Z,15.33
2022-11-09T10:30:35.470Z,14.50
2022-11-09T10:33:11.776Z,15.37
2022-11-09T10:35:41.751Z,13.17
2022-11-09T10:38:14.109Z,13.80
2022-11-09T10:40:53.461Z,11.27
2022-11-09T10:43:20.699Z,13.17
2022-11-09T10:45:57.930Z,12.23
2022-11-09T10:48:32.185Z,16.07
2022-11-09T10:50:59.359Z,13.93
2022-11-09T10:53:28.208Z,13.10
2022-11-09T10:55:56.571Z,12.97
2022-11-09T10:58:29.499Z,13.40
2022-11-09T11:01:16.233Z,13.37
2022-11-09T11:03:44.048Z,17.23
2022-11-09T11:06:18.801Z,18.10
2022-11-09T11:08:47.598Z,18.23
2022-11-09T11:11:33.879Z,17.83
2022-11-09T11:14:11.657Z,18.07
2022-11-09T11:16:39.224Z,15.33
2022-11-09T11:19:06.576Z,16.80
2022-11-09T11:21:33.714Z,17.93
2022-11-09T11:24:18.100Z,16.27
2022-11-09T11:26:54.799Z,16.33
2022-11-09T11:29:40.668Z,20.03
2022-11-09T11:32:26.473Z,15.37
2022-11-09T11:35:00.212Z,15.57
2022-11-09T11:37:46.299Z,17.77
2022-11-09T11:40:19.878Z,16.30
2022-11-09T11:42:55.995Z,15.70
2022-11-09T11:45:40.667Z,15.47
2022-11-09T11:48:27.237Z,14.93
2022-11-09T11:51:01.551Z,15.53
2022-11-09T11:53:47.269Z,14.03
2022-11-09T11:56:20.505Z,12.83
2022-11-09T11:58:56.628Z,11.63
2022-11-09T12:01:32.881Z,11.47
2022-11-09T12:04:08.924Z,13.63
2022-11-09T12:06:44.181Z,12.00
2022-11-09T12:09:11.525Z,13.30
2022-11-09T12:11:59.060Z,12.33
2022-11-09T12:14:49.284Z,15.93
2022-11-09T12:17:21.667Z,12.57
2022-11-09T12:20:01.264Z,19.90
2022-11-09T12:22:42.988Z,14.80
2022-11-09T12:25:22.061Z,14.20
2022-11-09T12:28:08.052Z,12.53
2022-11-09T12:30:41.326Z,17.67
2022-11-09T12:33:33.301Z,14.80
2022-11-09T12:36:03.712Z,13.87
2022-11-09T12:38:34.594Z,17.90
2022-11-09T12:41:05.416Z,13.63
2022-11-09T12:43:32.506Z,17.20
2022-11-09T12:46:00.368Z,14.90
2022-11-09T12:48:32.129Z,12.93
2022-11-09T12:51:00.796Z,12.83
2022-11-09T12:53:34.208Z,13.80
2022-11-09T12:56:19.766Z,17.57
2022-11-09T12:58:47.227Z,17.10
2022-11-09T13:01:35.180Z,15.20
2022-11-09T13:04:03.700Z,18.33
2022-11-09T13:06:32.324Z,15.97
2022-11-09T13:09:07.585Z,15.00
2022-11-09T13:11:43.221Z,16.63
2022-11-09T13:14:22.303Z,19.50
2022-11-09T13:16:53.272Z,15.50
2022-11-09T13:19:35.810Z,14.60
2022-11-09T13:22:03.584Z,16.77
2022-11-09T13:24:30.666Z,14.73
2022-11-09T13:27:03.549Z,14.27
2022-11-09T13:29:39.755Z,12.67
2022-11-09T13:32:09.752Z,14.00
2022-11-09T13:34:39.941Z,15.93
2022-11-09T13:37:25.577Z,18.43
2022-11-09T13:39:53.414Z,15.70
2022-11-09T13:42:31.847Z,14.27
2022-11-09T13:45:17.481Z,13.97
2022-11-09T13:47:50.872Z,13.03
2022-11-09T13:50:22.997Z,10.33
2022-11-09T13:52:51.830Z,12.73
2022-11-09T13:55:39.212Z,13.77
2022-11-09T13:58:14.212Z,15.80
2022-11-09T14:00:46.263Z,12.90
2022-11-09T14:03:27.854Z,16.70
2022-11-09T14:05:56.638Z,15.67
2022-11-09T14:08:29.116Z,15.90
2022-11-09T14:11:08.418Z,15.07
2022-11-09T14:13:35.560Z,14.50
2022-11-09T14:16:09.278Z,14.83
2022-11-09T14:18:48.877Z,14.77
2022-11-09T14:21:16.067Z,13.10
2022-11-09T14:23:43.347Z,10.67
2022-11-09T14:26:16.733Z,10.67
2022-11-09T14:28:43.973Z,14.13
2022-11-09T14:31:32.535Z,10.97
2022-11-09T14:34:03.739Z,15.03
2022-11-09T14:36:32.114Z,16.70
2022-11-09T14:39:01.133Z,17.27
2022-11-09T14:41:28.347Z,14.93
2022-11-09T14:43:57.061Z,15.53
2022-11-09T14:46:26.117Z,15.20
2022-11-09T14:48:53.260Z,15.37
2022-11-09T14:51:21.846Z,17.83
2022-11-09T14:53:49.642Z,15.50
2022-11-09T14:56:19.140Z,12.63
2022-11-09T14:58:46.520Z,16.37
2022-11-09T15:01:20.138Z,19.70
2022-11-09T15:04:05.855Z,15.60
2022-11-09T15:06:33.968Z,15.67
2022-11-09T15:09:05.846Z,13.83
2022-11-09T15:11:41.051Z,16.43
2022-11-09T15:14:20.488Z,14.30
2022-11-09T15:16:48.697Z,17.90
2022-11-09T15:19:32.668Z,16.30
2022-11-09T15:22:00.034Z,16.60
2022-11-09T15:24:30.492Z,17.83
2022-11-09T15:26:57.827Z,12.57
2022-11-09T15:29:44.096Z,14.93
2022-11-09T15:32:11.178Z,15.90
2022-11-09T15:34:39.819Z,18.13
2022-11-09T15:37:25.792Z,20.07
2022-11-09T15:39:53.246Z,18.23
2022-11-09T15:42:20.544Z,16.93
2022-11-09T15:44:51.349Z,20.43
2022-11-09T15:47:20.890Z,16.20
2022-11-09T15:49:48.083Z,20.50
2022-11-09T15:52:15.517Z,18.30
2022-11-09T15:54:46.582Z,20.87
2022-11-09T15:57:18.752Z,20.17
2022-11-09T15:59:49.542Z,18.60
2022-11-09T16:02:18.878Z,18.23
2022-11-09T16:04:46.059Z,18.03
2022-11-09T16:07:17.006Z,23.38
2022-11-09T16:09:44.248Z,20.10
2022-11-09T16:12:11.578Z,22.73
2022-11-09T16:14:38.910Z,16.63
2022-11-09T16:17:06.401Z,16.33
2022-11-09T16:19:33.574Z,17.30
2022-11-09T16:22:02.730Z,19.97
2022-11-09T16:24:30.430Z,19.07
2022-11-09T16:26:57.786Z,21.50
2022-11-09T16:29:27.121Z,16.57
2022-11-09T16:31:54.511Z,16.23
2022-11-09T16:34:22.019Z,20.33
2022-11-09T16:36:55.471Z,20.20
2022-11-09T16:39:25.671Z,19.40
2022-11-09T16:41:53.365Z,18.57
2022-11-09T16:44:23.551Z,23.27
2022-11-09T16:46:52.101Z,19.50
2022-11-09T16:49:19.287Z,15.70
2022-11-09T16:51:46.458Z,23.77
2022-11-09T16:54:13.591Z,18.97
2022-11-09T16:56:40.780Z,21.97
2022-11-09T16:59:07.923Z,23.90
2022-11-09T17:01:35.054Z,17.50
2022-11-09T17:04:02.398Z,18.50
2022-11-09T17:06:29.590Z,18.80
2022-11-09T17:08:57.791Z,24.03
2022-11-09T17:11:25.279Z,19.37
2022-11-09T17:13:59.374Z,20.43
2022-11-09T17:16:26.888Z,27.50
2022-11-09T17:18:54.616Z,24.07
2022-11-09T17:21:22.385Z,24.53
2022-11-09T17:23:50.490Z,20.63
2022-11-09T17:26:18.303Z,18.37
2022-11-09T17:28:45.607Z,16.67
2022-11-09T17:31:14.658Z,20.17
2022-11-09T17:33:41.745Z,24.77
2022-11-09T17:36:11.287Z,23.80
2022-11-09T17:38:39.013Z,22.20
2022-11-09T17:41:07.821Z,21.30
2022-11-09T17:43:35.884Z,18.20
2022-11-09T17:46:06.763Z,28.47
2022-11-09T17:48:34.905Z,23.67
2022-11-09T17:51:02.491Z,19.87
2022-11-09T17:53:30.140Z,16.40
2022-11-09T17:55:57.719Z,21.67
2022-11-09T17:58:25.155Z,26.93
2022-11-09T18:00:52.616Z,25.13
2022-11-09T18:03:19.931Z,21.47
2022-11-09T18:05:47.619Z,24.30
2022-11-09T18:08:15.414Z,24.60
2022-11-09T18:10:43.994Z,18.80
2022-11-09T18:13:11.779Z,23.43
2022-11-09T18:15:39.642Z,21.90
2022-11-09T18:18:07.209Z,19.73
2022-11-09T18:20:34.836Z,22.80
2022-11-09T18:23:01.996Z,22.27
2022-11-09T18:25:29.144Z,19.00
2022-11-09T18:27:56.319Z,24.47
2022-11-09T18:30:23.458Z,24.97
2022-11-09T18:32:50.672Z,22.93
2022-11-09T18:35:17.876Z,19.40
2022-11-09T18:37:48.730Z,20.73
2022-11-09T18:40:16.530Z,24.93
2022-11-09T18:42:43.784Z,18.40
2022-11-09T18:45:11.404Z,19.33
2022-11-09T18:47:39.203Z,20.83
2022-11-09T18:50:06.702Z,18.97
2022-11-09T18:52:36.372Z,26.60
2022-11-09T18:55:04.959Z,16.43
2022-11-09T18:57:32.229Z,27.00
2022-11-09T18:59:59.391Z,17.53
2022-11-09T19:02:26.538Z,25.47
2022-11-09T19:04:53.744Z,27.40
2022-11-09T19:07:20.880Z,24.07
2022-11-09T19:09:50.614Z,25.07
2022-11-09T19:12:19.875Z,26.40
2022-11-09T19:14:46.988Z,20.57
2022-11-09T19:17:15.267Z,26.57
2022-11-09T19:19:42.919Z,26.20
2022-11-09T19:22:16.807Z,21.90
2022-11-09T19:24:44.253Z,22.73
2022-11-09T19:27:11.540Z,21.23
2022-11-09T19:29:38.742Z,26.27
2022-11-09T19:32:06.429Z,25.57
2022-11-09T19:34:33.524Z,20.97
2022-11-09T19:37:00.658Z,25.67
2022-11-09T19:39:33.487Z,21.63
2022-11-09T19:42:01.449Z,19.63
2022-11-09T19:44:28.588Z,18.10
2022-11-09T19:46:55.804Z,21.80
2022-11-09T19:49:22.981Z,25.33
2022-11-09T19:51:50.158Z,23.80
2022-11-09T19:54:17.267Z,23.00
2022-11-09T19:56:44.414Z,18.03
2022-11-09T19:59:13.443Z,21.50
2022-11-09T20:01:40.656Z,18.83
2022-11-09T20:04:10.341Z,19.63
2022-11-09T20:06:38.777Z,26.13
2022-11-09T20:09:05.942Z,22.00
2022-11-09T20:11:51.827Z,23.13
2022-11-09T20:14:20.528Z,19.73
2022-11-09T20:16:48.481Z,21.97
2022-11-09T20:19:15.991Z,23.20
2022-11-09T20:21:44.536Z,22.30
2022-11-09T20:24:12.433Z,21.90
2022-11-09T20:26:40.613Z,21.47
2022-11-09T20:29:07.798Z,20.93
2022-11-09T20:31:35.063Z,22.23
2022-11-09T20:34:02.530Z,23.10
2022-11-09T20:36:29.722Z,21.30
2022-11-09T20:38:56.851Z,22.77
2022-11-09T20:41:25.708Z,21.07
2022-11-09T20:43:53.215Z,25.07
2022-11-09T20:46:22.130Z,22.60
2022-11-09T20:48:54.575Z,23.40
2022-11-09T20:51:23.292Z,22.07
2022-11-09T20:53:50.878Z,24.30
2022-11-09T20:56:18.175Z,22.13
2022-11-09T20:58:45.296Z,20.07
2022-11-09T21:01:24.774Z,25.07
2022-11-09T21:03:52.955Z,23.67
2022-11-09T21:06:21.135Z,22.03
2022-11-09T21:08:50.984Z,21.57
2022-11-09T21:11:18.643Z,22.10
2022-11-09T21:13:54.657Z,20.80
2022-11-09T21:16:22.521Z,23.63
2022-11-09T21:18:49.662Z,22.73
2022-11-09T21:21:18.244Z,24.87
2022-11-09T21:24:04.186Z,19.23
2022-11-09T21:26:50.150Z,26.10
2022-11-09T21:29:37.289Z,21.73
2022-11-09T21:32:05.123Z,19.17
2022-11-09T21:34:36.521Z,20.53
2022-11-09T21:37:04.441Z,23.67
2022-11-09T21:39:31.616Z,19.30
2022-11-09T21:41:58.764Z,24.20
2022-11-09T21:44:26.283Z,18.57
2022-11-09T21:46:53.385Z,21.43
2022-11-09T21:49:20.493Z,24.70
2022-11-09T21:51:47.890Z,19.77
2022-11-09T21:54:15.087Z,19.93
2022-11-09T21:56:42.272Z,17.80
2022-11-09T21:59:09.511Z,21.50
2022-11-09T22:01:36.895Z,19.83
2022-11-09T22:04:04.179Z,22.10
2022-11-09T22:06:31.387Z,21.80
2022-11-09T22:08:58.503Z,22.47
2022-11-09T22:11:45.476Z,22.67
2022-11-09T22:14:35.468Z,20.70
2022-11-09T22:17:03.108Z,22.77
2022-11-09T22:19:48.767Z,21.30
2022-11-09T22:22:16.166Z,22.20
2022-11-09T22:24:43.293Z,21.97
2022-11-09T22:27:10.804Z,24.80
2022-11-09T22:29:37.920Z,24.50
2022-11-09T22:32:05.131Z,22.70
2022-11-09T22:34:32.250Z,23.57
2022-11-09T22:36:59.397Z,24.20
2022-11-09T22:39:26.520Z,22.17
2022-11-09T22:41:53.600Z,23.47
2022-11-09T22:44:20.705Z,22.67
2022-11-09T22:46:49.128Z,24.63
2022-11-09T22:49:18.183Z,20.20
2022-11-09T22:51:45.478Z,19.90
2022-11-09T22:54:12.588Z,22.97
2022-11-09T22:56:39.691Z,21.10
2022-11-09T22:59:07.006Z,22.00
2022-11-09T23:01:34.257Z,18.33
2022-11-09T23:04:01.428Z,21.73
2022-11-09T23:06:29.108Z,20.37
2022-11-09T23:08:56.290Z,23.10
2022-11-09T23:11:23.863Z,23.30
2022-11-09T23:13:54.578Z,21.73
2022-11-09T23:16:23.215Z,25.10
2022-11-09T23:18:53.824Z,17.57
2022-11-09T23:21:25.816Z,17.33
2022-11-09T23:23:53.552Z,16.27
2022-11-09T23:26:20.881Z,18.30
2022-11-09T23:28:48.456Z,21.90
2022-11-09T23:31:17.300Z,22.67
2022-11-09T23:33:44.449Z,22.47
2022-11-09T23:36:11.579Z,23.97
2022-11-09T23:38:39.259Z,23.37
2022-11-09T23:41:07.826Z,18.50
2022-11-09T23:43:35.943Z,19.07
2022-11-09T23:46:13.332Z,20.77
2022-11-09T23:48:41.360Z,20.43
2022-11-09T23:51:08.564Z,23.50
2022-11-09T23:53:36.477Z,23.13
2022-11-09T23:56:05.364Z,24.50
2022-11-09T23:58:32.871Z,21.40
